Time,TemperatureF,DewpointF,PressureIn,WindDirection,WindDirectionDegrees,WindSpeedMPH,WindSpeedGustMPH,Humidity,HourlyPrecipIn,Conditions,Clouds,dailyrainin,SoftwareType,DateUTC
2013-03-16 00:00:00,39.6,31.6,29.79,WNW,298,11.0,14.0,73,0.00,,,0.00,meteohub,2013-03-16 04:00:00,
2013-03-16 00:05:00,39.6,32.0,29.79,WNW,293,10.0,17.0,74,0.00,,,0.00,meteohub,2013-03-16 04:05:00,
2013-03-16 00:10:00,39.6,32.0,29.79,WNW,297,11.0,19.0,74,0.00,,,0.00,meteohub,2013-03-16 04:10:00,
2013-03-16 00:15:00,39.4,31.1,29.79,WNW,285,11.0,19.0,72,0.00,,,0.00,meteohub,2013-03-16 04:15:00,
2013-03-16 00:20:00,39.4,31.8,29.79,WNW,298,11.0,17.0,74,0.00,,,0.00,meteohub,2013-03-16 04:20:00,
2013-03-16 00:25:00,39.4,31.8,29.79,NW,304,16.0,18.0,74,0.00,,,0.00,meteohub,2013-03-16 04:25:00,
2013-03-16 00:30:00,39.4,31.5,29.79,WNW,296,12.0,18.0,73,0.00,,,0.00,meteohub,2013-03-16 04:30:00,
2013-03-16 00:35:00,39.2,31.3,29.79,WNW,300,10.0,18.0,73,0.00,,,0.00,meteohub,2013-03-16 04:35:00,
2013-03-16 00:40:00,39.2,31.6,29.79,NW,309,11.0,17.0,74,0.00,,,0.00,meteohub,2013-03-16 04:40:00,
2013-03-16 00:45:00,39.4,31.1,29.79,WNW,290,10.0,18.0,72,0.00,,,0.00,meteohub,2013-03-16 04:45:00,
2013-03-16 00:50:00,39.4,30.7,29.79,NW,304,10.0,18.0,71,0.00,,,0.00,meteohub,2013-03-16 04:50:00,
2013-03-16 00:55:00,39.4,30.4,29.79,WNW,284,15.0,18.0,70,0.00,,,0.00,meteohub,2013-03-16 04:55:00,
2013-03-16 01:00:00,39.4,30.7,29.79,WNW,297,10.0,18.0,71,0.00,,,0.00,meteohub,2013-03-16 05:00:00,
2013-03-16 01:05:00,39.2,30.6,29.79,NNW,338,11.0,18.0,71,0.00,,,0.00,meteohub,2013-03-16 05:05:00,
2013-03-16 01:10:00,39.2,31.3,29.79,NW,304,6.0,15.0,73,0.00,,,0.00,meteohub,2013-03-16 05:10:00,
2013-03-16 01:15:00,39.0,31.5,29.79,NW,305,8.0,16.0,74,0.00,,,0.00,meteohub,2013-03-16 05:15:00,
2013-03-16 01:20:00,39.0,31.1,29.79,NW,321,11.0,16.0,73,0.00,,,0.00,meteohub,2013-03-16 05:20:00,
2013-03-16 01:25:00,39.0,31.1,29.78,NW,318,7.0,16.0,73,0.00,,,0.00,meteohub,2013-03-16 05:25:00,
2013-03-16 01:30:00,39.2,30.9,29.79,NW,304,14.0,16.0,72,0.00,,,0.00,meteohub,2013-03-16 05:30:00,
2013-03-16 01:35:00,39.2,30.6,29.79,WNW,301,8.0,20.0,71,0.00,,,0.00,meteohub,2013-03-16 05:35:00,
2013-03-16 01:40:00,39.0,31.1,29.80,NW,311,10.0,20.0,73,0.00,,,0.00,meteohub,2013-03-16 05:40:00,
2013-03-16 01:45:00,39.0,31.1,29.79,NW,308,8.0,20.0,73,0.00,,,0.00,meteohub,2013-03-16 05:45:00,
2013-03-16 01:50:00,38.8,31.3,29.80,WNW,295,8.0,20.0,74,0.00,,,0.00,meteohub,2013-03-16 05:50:00,
2013-03-16 01:55:00,38.8,31.6,29.80,WNW,293,6.0,13.0,75,0.00,,,0.00,meteohub,2013-03-16 05:55:00,
2013-03-16 02:00:00,38.8,31.6,29.80,NW,307,8.0,13.0,75,0.00,,,0.00,meteohub,2013-03-16 06:00:00,
2013-03-16 02:05:00,38.7,31.8,29.80,WNW,297,8.0,13.0,76,0.00,,,0.00,meteohub,2013-03-16 06:05:00,
2013-03-16 02:11:00,38.7,31.5,29.80,WNW,300,9.0,13.0,75,0.00,,,0.00,meteohub,2013-03-16 06:11:00,
2013-03-16 02:16:00,38.7,31.5,29.80,NW,311,8.0,11.0,75,0.00,,,0.00,meteohub,2013-03-16 06:16:00,
2013-03-16 02:21:00,38.7,31.8,29.80,WNW,302,5.0,13.0,76,0.00,,,0.00,meteohub,2013-03-16 06:21:00,
2013-03-16 02:26:00,38.5,31.6,29.81,WNW,300,6.0,13.0,76,0.00,,,0.00,meteohub,2013-03-16 06:26:00,
2013-03-16 02:31:00,38.5,31.6,29.81,WNW,295,5.0,13.0,76,0.00,,,0.00,meteohub,2013-03-16 06:31:00,
2013-03-16 02:36:00,38.5,31.6,29.80,WNW,285,9.0,12.0,76,0.00,,,0.00,meteohub,2013-03-16 06:36:00,
2013-03-16 02:41:00,38.5,31.8,29.80,NW,311,7.0,12.0,77,0.00,,,0.00,meteohub,2013-03-16 06:41:00,
2013-03-16 02:46:00,38.5,31.6,29.80,WNW,296,6.0,13.0,76,0.00,,,0.00,meteohub,2013-03-16 06:46:00,
2013-03-16 02:51:00,38.5,31.8,29.81,NW,304,9.0,13.0,77,0.00,,,0.00,meteohub,2013-03-16 06:51:00,
2013-03-16 02:56:00,38.5,31.8,29.81,WNW,300,4.0,11.0,77,0.00,,,0.00,meteohub,2013-03-16 06:56:00,
2013-03-16 03:01:00,38.3,32.0,29.82,WNW,300,7.0,11.0,78,0.00,,,0.00,meteohub,2013-03-16 07:01:00,
2013-03-16 03:06:00,38.3,32.0,29.82,WNW,298,6.0,11.0,78,0.00,,,0.00,meteohub,2013-03-16 07:06:00,
2013-03-16 03:11:00,38.5,32.2,29.82,NW,321,8.0,11.0,78,0.00,,,0.00,meteohub,2013-03-16 07:11:00,
2013-03-16 03:16:00,38.5,31.6,29.81,NW,304,7.0,11.0,76,0.00,,,0.00,meteohub,2013-03-16 07:16:00,
2013-03-16 03:21:00,38.3,31.5,29.82,NNE,23,14.0,14.0,76,0.00,,,0.00,meteohub,2013-03-16 07:21:00,
2013-03-16 03:27:00,37.8,31.3,29.83,North,0,13.0,17.0,77,0.00,,,0.00,meteohub,2013-03-16 07:27:00,
2013-03-16 03:32:00,37.6,31.1,29.83,North,359,12.0,17.0,77,0.00,,,0.00,meteohub,2013-03-16 07:32:00,
2013-03-16 03:37:00,37.6,31.1,29.83,NNW,333,12.0,17.0,77,0.00,,,0.00,meteohub,2013-03-16 07:37:00,
2013-03-16 03:42:00,37.4,30.9,29.83,NW,321,11.0,17.0,77,0.00,,,0.00,meteohub,2013-03-16 07:42:00,
2013-03-16 03:47:00,37.2,30.7,29.83,North,1,11.0,17.0,77,0.00,,,0.00,meteohub,2013-03-16 07:47:00,
2013-03-16 03:52:00,37.2,29.7,29.83,NW,312,10.0,18.0,74,0.00,,,0.00,meteohub,2013-03-16 07:52:00,
2013-03-16 03:57:00,37.2,29.7,29.83,NNW,338,12.0,18.0,74,0.00,,,0.00,meteohub,2013-03-16 07:57:00,
2013-03-16 04:02:00,37.2,29.1,29.83,NW,309,10.0,18.0,72,0.00,,,0.00,meteohub,2013-03-16 08:02:00,
2013-03-16 04:07:00,37.2,28.8,29.83,NNW,335,11.0,18.0,71,0.00,,,0.00,meteohub,2013-03-16 08:07:00,
2013-03-16 04:12:00,37.2,29.1,29.83,NW,314,10.0,18.0,72,0.00,,,0.00,meteohub,2013-03-16 08:12:00,
2013-03-16 04:17:00,37.2,29.3,29.83,NNW,337,12.0,18.0,73,0.00,,,0.00,meteohub,2013-03-16 08:17:00,
2013-03-16 04:22:00,37.2,28.8,29.84,NNW,340,10.0,17.0,71,0.00,,,0.00,meteohub,2013-03-16 08:22:00,
2013-03-16 04:27:00,37.2,28.4,29.84,NW,311,8.0,18.0,70,0.00,,,0.00,meteohub,2013-03-16 08:27:00,
2013-03-16 04:32:00,37.2,28.4,29.83,NW,312,11.0,18.0,70,0.00,,,0.00,meteohub,2013-03-16 08:32:00,
2013-03-16 04:37:00,37.0,27.9,29.84,NNW,337,17.0,18.0,69,0.00,,,0.00,meteohub,2013-03-16 08:37:00,
2013-03-16 04:42:00,37.0,27.5,29.84,North,355,17.0,20.0,68,0.00,,,0.00,meteohub,2013-03-16 08:42:00,
2013-03-16 04:47:00,37.0,27.5,29.85,NNW,331,15.0,20.0,68,0.00,,,0.00,meteohub,2013-03-16 08:47:00,
2013-03-16 04:52:00,36.9,27.0,29.85,NNW,328,12.0,21.0,67,0.00,,,0.00,meteohub,2013-03-16 08:52:00,
2013-03-16 04:57:00,36.9,27.0,29.85,NW,325,13.0,21.0,67,0.00,,,0.00,meteohub,2013-03-16 08:57:00,
2013-03-16 05:02:00,36.9,26.6,29.85,NNW,342,10.0,19.0,66,0.00,,,0.00,meteohub,2013-03-16 09:02:00,
2013-03-16 05:07:00,36.9,26.2,29.85,North,8,14.0,20.0,65,0.00,,,0.00,meteohub,2013-03-16 09:07:00,
2013-03-16 05:12:00,36.7,26.8,29.86,NNW,344,10.0,20.0,67,0.00,,,0.00,meteohub,2013-03-16 09:12:00,
2013-03-16 05:17:00,36.7,27.1,29.86,NW,326,9.0,20.0,68,0.00,,,0.00,meteohub,2013-03-16 09:17:00,
2013-03-16 05:22:00,36.7,26.8,29.86,North,4,11.0,18.0,67,0.00,,,0.00,meteohub,2013-03-16 09:22:00,
2013-03-16 05:27:00,36.5,25.2,29.86,NNW,347,10.0,18.0,63,0.00,,,0.00,meteohub,2013-03-16 09:27:00,
2013-03-16 05:32:00,36.5,27.0,29.87,North,355,9.0,18.0,68,0.00,,,0.00,meteohub,2013-03-16 09:32:00,
2013-03-16 05:37:00,36.3,27.1,29.87,NNE,20,11.0,18.0,69,0.00,,,0.00,meteohub,2013-03-16 09:37:00,
2013-03-16 05:42:00,36.1,26.2,29.87,North,4,16.0,18.0,67,0.00,,,0.00,meteohub,2013-03-16 09:42:00,
2013-03-16 05:47:00,36.0,25.7,29.87,NNW,340,9.0,17.0,66,0.00,,,0.00,meteohub,2013-03-16 09:47:00,
2013-03-16 05:52:00,36.0,25.0,29.87,NNW,340,8.0,17.0,64,0.00,,,0.00,meteohub,2013-03-16 09:52:00,
2013-03-16 05:57:00,35.8,25.5,29.87,North,8,10.0,16.0,66,0.00,,,0.00,meteohub,2013-03-16 09:57:00,
2013-03-16 06:02:00,35.8,25.9,29.88,North,1,7.0,15.0,67,0.00,,,0.00,meteohub,2013-03-16 10:02:00,
2013-03-16 06:07:00,35.6,25.7,29.88,NNE,28,12.0,15.0,67,0.00,,,0.00,meteohub,2013-03-16 10:07:00,
2013-03-16 06:12:00,35.1,24.8,29.88,North,8,8.0,13.0,66,0.00,,,0.00,meteohub,2013-03-16 10:12:00,
2013-03-16 06:17:00,35.1,24.8,29.88,North,8,8.0,13.0,66,0.00,,,0.00,meteohub,2013-03-16 10:17:00,
2013-03-16 07:50:00,34.3,24.4,29.90,North,-999,-999.0,-999.0,67,-99.99,,,0.00,meteohub,2013-03-16 11:50:00,
2013-03-16 07:55:00,34.5,25.3,29.89,North,-999,-999.0,-999.0,69,0.00,,,0.00,meteohub,2013-03-16 11:55:00,
2013-03-16 08:00:00,34.3,24.4,29.89,NNW,348,10.0,13.0,67,0.00,,,0.00,meteohub,2013-03-16 12:00:00,
2013-03-16 08:05:00,34.3,24.1,29.89,ENE,60,12.0,15.0,66,0.00,,,0.00,meteohub,2013-03-16 12:05:00,
2013-03-16 08:10:00,34.3,24.1,29.90,NNE,16,6.0,15.0,66,0.00,,,0.00,meteohub,2013-03-16 12:10:00,
2013-03-16 08:15:00,34.5,24.6,29.90,NNE,19,8.0,15.0,67,0.00,,,0.00,meteohub,2013-03-16 12:15:00,
2013-03-16 08:20:00,34.3,24.4,29.89,NNW,341,8.0,13.0,67,0.00,,,0.00,meteohub,2013-03-16 12:20:00,
2013-03-16 08:25:00,34.5,25.0,29.90,NNW,345,3.0,13.0,68,0.00,,,0.00,meteohub,2013-03-16 12:25:00,
2013-03-16 08:30:00,34.5,26.1,29.90,NE,46,5.0,13.0,71,0.00,,,0.00,meteohub,2013-03-16 12:30:00,
2013-03-16 08:35:00,34.3,24.8,29.91,NNE,18,3.0,11.0,68,0.00,,,0.00,meteohub,2013-03-16 12:35:00,
2013-03-16 08:40:00,34.5,25.3,29.91,NNE,25,3.0,10.0,69,0.00,,,0.00,meteohub,2013-03-16 12:40:00,
2013-03-16 08:45:00,34.3,24.8,29.91,NE,35,6.0,10.0,68,0.00,,,0.00,meteohub,2013-03-16 12:45:00,
2013-03-16 08:50:00,34.2,24.6,29.91,NNE,33,5.0,11.0,68,0.00,,,0.00,meteohub,2013-03-16 12:50:00,
2013-03-16 08:55:00,34.3,25.2,29.91,NNE,21,5.0,11.0,69,0.00,,,0.00,meteohub,2013-03-16 12:55:00,
2013-03-16 09:00:00,34.2,24.6,29.91,NNE,21,3.0,10.0,68,0.00,,,0.00,meteohub,2013-03-16 13:00:00,
2013-03-16 09:05:00,34.2,24.6,29.91,North,354,4.0,10.0,68,0.00,,,0.00,meteohub,2013-03-16 13:05:00,
2013-03-16 09:10:00,34.0,24.6,29.91,NNE,20,12.0,12.0,68,0.00,,,0.00,meteohub,2013-03-16 13:10:00,
2013-03-16 09:16:00,34.0,24.6,29.92,NE,37,8.0,12.0,68,0.00,,,0.00,meteohub,2013-03-16 13:16:00,
2013-03-16 09:21:00,33.6,24.3,29.92,North,11,11.0,13.0,68,0.00,,,0.00,meteohub,2013-03-16 13:21:00,
2013-03-16 09:26:00,33.6,24.3,29.91,North,353,8.0,13.0,68,0.00,,,0.00,meteohub,2013-03-16 13:26:00,
2013-03-16 09:31:00,33.6,23.9,29.91,NNE,27,11.0,13.0,67,0.00,,,0.00,meteohub,2013-03-16 13:31:00,
2013-03-16 09:36:00,33.6,24.3,29.91,NNE,25,8.0,13.0,68,0.00,,,0.00,meteohub,2013-03-16 13:36:00,
2013-03-16 09:41:00,33.6,23.2,29.92,North,353,6.0,12.0,65,0.00,,,0.00,meteohub,2013-03-16 13:41:00,
2013-03-16 09:46:00,33.8,23.4,29.91,NNE,33,7.0,12.0,65,0.00,,,0.00,meteohub,2013-03-16 13:46:00,
2013-03-16 09:51:00,33.8,23.0,29.91,NW,326,7.0,11.0,64,0.00,,,0.00,meteohub,2013-03-16 13:51:00,
2013-03-16 09:56:00,34.0,23.9,29.91,NNW,347,8.0,11.0,66,0.00,,,0.00,meteohub,2013-03-16 13:56:00,
2013-03-16 10:01:00,34.0,23.9,29.91,NW,325,5.0,12.0,66,0.00,,,0.00,meteohub,2013-03-16 14:01:00,
2013-03-16 10:06:00,34.2,23.2,29.91,NNE,18,9.0,12.0,64,0.00,,,0.00,meteohub,2013-03-16 14:06:00,
2013-03-16 10:11:00,34.0,23.0,29.90,NNE,18,10.0,12.0,64,0.00,,,0.00,meteohub,2013-03-16 14:11:00,
2013-03-16 10:16:00,34.2,23.5,29.90,NNE,18,11.0,13.0,65,0.00,,,0.00,meteohub,2013-03-16 14:16:00,
2013-03-16 10:21:00,34.0,23.0,29.90,NNE,23,7.0,14.0,64,0.00,,,0.00,meteohub,2013-03-16 14:21:00,
2013-03-16 10:27:00,34.2,24.4,29.90,NNE,23,7.0,14.0,67,0.00,,,0.00,meteohub,2013-03-16 14:27:00,
2013-03-16 10:32:00,34.0,23.0,29.89,North,356,10.0,14.0,64,0.00,,,0.00,meteohub,2013-03-16 14:32:00,
2013-03-16 10:37:00,34.0,22.3,29.89,North,359,8.0,13.0,62,0.00,,,0.00,meteohub,2013-03-16 14:37:00,
2013-03-16 10:41:00,34.2,23.2,29.89,NNE,30,5.0,13.0,64,0.00,,,0.00,meteohub,2013-03-16 14:41:00,
2013-03-16 10:47:00,34.3,22.3,29.89,NNE,12,11.0,13.0,61,0.00,,,0.00,meteohub,2013-03-16 14:47:00,
2013-03-16 10:52:00,34.5,22.1,29.90,North,8,8.0,15.0,60,0.00,,,0.00,meteohub,2013-03-16 14:52:00,
2013-03-16 10:57:00,34.7,23.0,29.89,NNE,23,10.0,15.0,62,0.00,,,0.00,meteohub,2013-03-16 14:57:00,
2013-03-16 11:02:00,34.7,21.4,29.89,NNE,27,7.0,15.0,58,0.00,,,0.00,meteohub,2013-03-16 15:02:00,
2013-03-16 11:07:00,35.1,22.1,29.89,NNW,346,7.0,11.0,59,0.00,,,0.00,meteohub,2013-03-16 15:07:00,
2013-03-16 11:12:00,35.2,22.8,29.88,North,359,8.0,11.0,60,0.00,,,0.00,meteohub,2013-03-16 15:12:00,
2013-03-16 11:17:00,35.1,21.7,29.88,NNE,20,6.0,12.0,58,0.00,,,0.00,meteohub,2013-03-16 15:17:00,
2013-03-16 11:22:00,35.1,22.1,29.89,NNE,20,7.0,12.0,59,0.00,,,0.00,meteohub,2013-03-16 15:22:00,
2013-03-16 11:27:00,35.4,22.1,29.88,NNE,22,8.0,12.0,58,0.00,,,0.00,meteohub,2013-03-16 15:27:00,
2013-03-16 11:32:00,35.4,21.2,29.88,NNE,21,7.0,11.0,56,0.00,,,0.00,meteohub,2013-03-16 15:32:00,
2013-03-16 11:37:00,35.4,21.2,29.88,North,352,6.0,10.0,56,0.00,,,0.00,meteohub,2013-03-16 15:37:00,
2013-03-16 11:42:00,35.4,20.5,29.89,NNW,328,5.0,10.0,54,0.00,,,0.00,meteohub,2013-03-16 15:42:00,
2013-03-16 11:47:00,35.6,21.4,29.88,NNW,348,5.0,10.0,56,0.00,,,0.00,meteohub,2013-03-16 15:47:00,
2013-03-16 11:52:00,36.0,21.4,29.88,North,359,3.0,9.0,55,0.00,,,0.00,meteohub,2013-03-16 15:52:00,
2013-03-16 11:57:00,36.0,20.5,29.88,NNW,330,5.0,9.0,53,0.00,,,0.00,meteohub,2013-03-16 15:57:00,
2013-03-16 12:02:00,36.0,21.0,29.88,NW,307,4.0,9.0,54,0.00,,,0.00,meteohub,2013-03-16 16:02:00,
2013-03-16 12:07:00,36.0,21.0,29.88,NNW,344,4.0,7.0,54,0.00,,,0.00,meteohub,2013-03-16 16:07:00,
2013-03-16 12:12:00,36.1,21.0,29.88,NW,319,2.0,7.0,54,0.00,,,0.00,meteohub,2013-03-16 16:12:00,
2013-03-16 12:18:00,36.3,19.9,29.88,NNW,331,2.0,7.0,51,0.00,,,0.00,meteohub,2013-03-16 16:18:00,
2013-03-16 12:23:00,36.7,20.3,29.88,NW,319,2.0,6.0,51,0.00,,,0.00,meteohub,2013-03-16 16:23:00,
2013-03-16 12:28:00,36.7,20.7,29.88,NNW,328,4.0,5.0,52,0.00,,,0.00,meteohub,2013-03-16 16:28:00,
2013-03-16 12:33:00,37.2,20.8,29.87,NNW,335,3.0,5.0,51,0.00,,,0.00,meteohub,2013-03-16 16:33:00,
2013-03-16 12:38:00,37.2,20.3,29.88,NW,307,3.0,6.0,50,0.00,,,0.00,meteohub,2013-03-16 16:38:00,
2013-03-16 12:43:00,36.7,19.8,29.88,NNW,347,1.0,6.0,50,0.00,,,0.00,meteohub,2013-03-16 16:43:00,
2013-03-16 12:48:00,36.9,21.4,29.88,NW,311,1.0,6.0,53,0.00,,,0.00,meteohub,2013-03-16 16:48:00,
2013-03-16 12:53:00,36.9,20.5,29.88,NW,309,1.0,4.0,51,0.00,,,0.00,meteohub,2013-03-16 16:53:00,
2013-03-16 12:58:00,36.7,20.7,29.88,NW,309,2.0,4.0,52,0.00,,,0.00,meteohub,2013-03-16 16:58:00,
2013-03-16 13:03:00,37.0,20.7,29.87,WNW,302,2.0,4.0,51,0.00,,,0.00,meteohub,2013-03-16 17:03:00,
2013-03-16 13:08:00,36.9,19.9,29.88,NW,311,1.0,4.0,50,0.00,,,0.00,meteohub,2013-03-16 17:08:00,
2013-03-16 13:13:00,36.7,19.8,29.88,WNW,302,1.0,4.0,50,0.00,,,0.00,meteohub,2013-03-16 17:13:00,
2013-03-16 13:18:00,36.9,21.4,29.87,West,277,1.0,4.0,53,0.00,,,0.00,meteohub,2013-03-16 17:18:00,
2013-03-16 13:23:00,37.0,20.7,29.87,West,274,0.0,4.0,51,0.00,,,0.00,meteohub,2013-03-16 17:23:00,
2013-03-16 13:28:00,37.0,20.1,29.88,WNW,287,1.0,3.0,50,0.00,,,0.00,meteohub,2013-03-16 17:28:00,
2013-03-16 13:33:00,37.0,21.0,29.87,West,280,1.0,3.0,52,0.00,,,0.00,meteohub,2013-03-16 17:33:00,
2013-03-16 13:38:00,36.9,19.9,29.87,West,276,2.0,3.0,50,0.00,,,0.00,meteohub,2013-03-16 17:38:00,
2013-03-16 13:43:00,37.0,22.8,29.87,WNW,285,1.0,3.0,56,0.00,,,0.00,meteohub,2013-03-16 17:43:00,
2013-03-16 13:48:00,37.6,23.4,29.87,WNW,295,1.0,3.0,56,0.00,,,0.00,meteohub,2013-03-16 17:48:00,
2013-03-16 13:53:00,37.2,21.2,29.87,West,270,1.0,3.0,52,0.00,,,0.00,meteohub,2013-03-16 17:53:00,
2013-03-16 13:58:00,37.4,22.3,29.86,West,281,1.0,2.0,54,0.00,,,0.00,meteohub,2013-03-16 17:58:00,
2013-03-16 14:03:00,37.0,21.9,29.86,WNW,282,1.0,3.0,54,0.00,,,0.00,meteohub,2013-03-16 18:03:00,
2013-03-16 14:08:00,36.9,21.4,29.86,West,274,2.0,3.0,53,0.00,,,0.00,meteohub,2013-03-16 18:08:00,
2013-03-16 14:13:00,36.5,21.9,29.86,West,260,2.0,3.0,55,0.00,,,0.00,meteohub,2013-03-16 18:13:00,
2013-03-16 14:18:00,36.3,21.2,29.86,WNW,285,0.0,3.0,54,0.00,,,0.00,meteohub,2013-03-16 18:18:00,
2013-03-16 14:23:00,36.1,21.6,29.86,WSW,253,1.0,3.0,55,0.00,,,0.00,meteohub,2013-03-16 18:23:00,
2013-03-16 14:28:00,36.0,21.7,29.86,West,273,0.0,2.0,56,0.00,,,0.00,meteohub,2013-03-16 18:28:00,
2013-03-16 14:34:00,36.0,22.3,29.86,West,277,2.0,3.0,57,0.00,,,0.00,meteohub,2013-03-16 18:34:00,
2013-03-16 14:39:00,35.4,24.1,29.86,West,280,3.0,5.0,63,0.00,,,0.00,meteohub,2013-03-16 18:39:00,
2013-03-16 14:44:00,35.1,25.2,29.87,WNW,283,5.0,5.0,67,0.00,,,0.00,meteohub,2013-03-16 18:44:00,
2013-03-16 14:48:00,34.9,26.1,29.87,WNW,301,2.0,6.0,70,0.00,,,0.00,meteohub,2013-03-16 18:48:00,
2013-03-16 14:53:00,34.5,26.4,29.87,West,277,1.0,6.0,72,0.00,,,0.00,meteohub,2013-03-16 18:53:00,
2013-03-16 14:59:00,34.0,26.6,29.88,WNW,288,1.0,6.0,74,0.00,,,0.00,meteohub,2013-03-16 18:59:00,
2013-03-16 15:04:00,33.4,27.9,29.87,NW,319,4.0,5.0,80,0.00,,,0.00,meteohub,2013-03-16 19:04:00,
2013-03-16 15:09:00,32.7,28.2,29.88,WNW,293,4.0,6.0,83,0.00,,,0.00,meteohub,2013-03-16 19:09:00,
2013-03-16 15:14:00,32.4,28.6,29.88,West,278,3.0,6.0,86,0.00,,,0.00,meteohub,2013-03-16 19:14:00,
2013-03-16 15:19:00,32.2,28.9,29.88,WNW,284,2.0,6.0,88,0.00,,,0.00,meteohub,2013-03-16 19:19:00,
2013-03-16 15:24:00,32.2,28.9,29.87,WNW,289,2.0,6.0,88,0.00,,,0.00,meteohub,2013-03-16 19:24:00,
2013-03-16 15:29:00,32.2,29.3,29.87,West,273,1.0,6.0,89,0.00,,,0.00,meteohub,2013-03-16 19:29:00,
2013-03-16 15:34:00,32.5,30.0,29.87,WNW,296,2.0,4.0,90,0.00,,,0.00,meteohub,2013-03-16 19:34:00,
2013-03-16 15:39:00,32.5,30.0,29.86,NW,307,1.0,4.0,90,0.00,,,0.00,meteohub,2013-03-16 19:39:00,
2013-03-16 15:44:00,32.7,30.4,29.86,WNW,284,2.0,4.0,91,0.00,,,0.00,meteohub,2013-03-16 19:44:00,
2013-03-16 15:49:00,32.7,30.4,29.86,WNW,290,1.0,4.0,91,0.00,,,0.00,meteohub,2013-03-16 19:49:00,
2013-03-16 15:54:00,32.5,30.2,29.86,WNW,288,0.0,4.0,91,0.00,,,0.00,meteohub,2013-03-16 19:54:00,
2013-03-16 15:59:00,32.7,30.4,29.85,NNW,342,0.0,3.0,91,0.00,,,0.00,meteohub,2013-03-16 19:59:00,
2013-03-16 16:04:00,32.7,30.4,29.85,NW,309,0.0,3.0,91,0.00,,,0.00,meteohub,2013-03-16 20:04:00,
2013-03-16 16:09:00,32.7,30.4,29.86,WNW,288,1.0,4.0,91,0.00,,,0.00,meteohub,2013-03-16 20:09:00,
2013-03-16 16:14:00,32.7,30.4,29.86,NW,306,2.0,4.0,91,0.00,,,0.00,meteohub,2013-03-16 20:14:00,
2013-03-16 16:19:00,32.7,30.4,29.85,WNW,288,0.0,4.0,91,0.00,,,0.00,meteohub,2013-03-16 20:19:00,
2013-03-16 16:24:00,32.7,30.4,29.85,WNW,288,1.0,3.0,91,0.00,,,0.00,meteohub,2013-03-16 20:24:00,
2013-03-16 16:29:00,32.5,30.2,29.85,WNW,295,0.0,3.0,91,0.00,,,0.00,meteohub,2013-03-16 20:29:00,
2013-03-16 16:34:00,32.5,30.2,29.86,WNW,298,0.0,3.0,91,0.00,,,0.00,meteohub,2013-03-16 20:34:00,
2013-03-16 16:39:00,32.5,30.0,29.85,WNW,291,1.0,3.0,90,0.00,,,0.00,meteohub,2013-03-16 20:39:00,
2013-03-16 16:44:00,32.4,29.8,29.85,WNW,283,0.0,2.0,90,0.00,,,0.00,meteohub,2013-03-16 20:44:00,
2013-03-16 16:49:00,32.5,30.2,29.85,WSW,258,0.0,2.0,91,0.00,,,0.00,meteohub,2013-03-16 20:49:00,
2013-03-16 16:54:00,32.5,30.2,29.85,WNW,285,1.0,2.0,91,0.00,,,0.00,meteohub,2013-03-16 20:54:00,
2013-03-16 16:59:00,32.5,30.2,29.84,WNW,283,0.0,2.0,91,0.00,,,0.00,meteohub,2013-03-16 20:59:00,
2013-03-16 17:04:00,32.4,30.0,29.84,WNW,291,0.0,2.0,91,0.00,,,0.00,meteohub,2013-03-16 21:04:00,
2013-03-16 17:09:00,32.4,30.0,29.85,WNW,284,0.0,2.0,91,0.00,,,0.00,meteohub,2013-03-16 21:09:00,
2013-03-16 17:14:00,32.4,30.4,29.85,West,278,0.0,2.0,92,0.00,,,0.00,meteohub,2013-03-16 21:14:00,
2013-03-16 17:19:00,32.4,30.4,29.84,West,268,0.0,1.0,92,0.00,,,0.00,meteohub,2013-03-16 21:19:00,
2013-03-16 17:24:00,32.4,30.4,29.84,West,271,1.0,2.0,92,0.00,,,0.00,meteohub,2013-03-16 21:24:00,
2013-03-16 17:29:00,32.2,30.2,29.84,WSW,257,1.0,2.0,92,0.00,,,0.00,meteohub,2013-03-16 21:29:00,
2013-03-16 17:34:00,32.2,30.2,29.84,WSW,256,0.0,1.0,92,0.00,,,0.00,meteohub,2013-03-16 21:34:00,
2013-03-16 17:39:00,32.2,30.2,29.84,West,267,0.0,2.0,92,0.00,,,0.00,meteohub,2013-03-16 21:39:00,
2013-03-16 17:44:00,32.0,30.0,29.84,WSW,240,0.0,3.0,92,0.00,,,0.00,meteohub,2013-03-16 21:44:00,
2013-03-16 17:49:00,32.0,30.0,29.84,West,259,0.0,3.0,92,0.00,,,0.00,meteohub,2013-03-16 21:49:00,
2013-03-16 17:54:00,31.8,29.8,29.84,West,269,0.0,3.0,92,0.00,,,0.00,meteohub,2013-03-16 21:54:00,
2013-03-16 17:59:00,31.8,29.8,29.84,WSW,239,1.0,2.0,92,0.00,,,0.00,meteohub,2013-03-16 21:59:00,
2013-03-16 18:04:00,31.8,30.0,29.85,WNW,287,0.0,2.0,93,0.00,,,0.00,meteohub,2013-03-16 22:04:00,
2013-03-16 18:09:00,32.0,30.2,29.85,West,280,1.0,2.0,93,0.00,,,0.00,meteohub,2013-03-16 22:09:00,
2013-03-16 18:14:00,32.0,30.2,29.85,SW,226,0.0,2.0,93,0.00,,,0.00,meteohub,2013-03-16 22:14:00,
2013-03-16 18:19:00,31.8,30.0,29.85,WSW,246,0.0,2.0,93,0.00,,,0.00,meteohub,2013-03-16 22:19:00,
2013-03-16 18:24:00,32.0,30.2,29.84,WSW,248,0.0,3.0,93,0.00,,,0.00,meteohub,2013-03-16 22:24:00,
2013-03-16 18:30:00,32.2,30.4,29.85,SSE,166,0.0,3.0,93,0.00,,,0.00,meteohub,2013-03-16 22:30:00,
2013-03-16 18:35:00,32.2,30.4,29.86,SW,234,0.0,3.0,93,0.00,,,0.00,meteohub,2013-03-16 22:35:00,
2013-03-16 18:40:00,32.0,30.2,29.85,WSW,255,0.0,3.0,93,0.00,,,0.00,meteohub,2013-03-16 22:40:00,
2013-03-16 18:45:00,32.2,30.4,29.85,West,264,0.0,4.0,93,0.00,,,0.00,meteohub,2013-03-16 22:45:00,
2013-03-16 18:50:00,32.0,30.2,29.85,West,271,0.0,4.0,93,0.00,,,0.00,meteohub,2013-03-16 22:50:00,
2013-03-16 18:55:00,31.8,30.0,29.85,West,274,0.0,3.0,93,0.00,,,0.00,meteohub,2013-03-16 22:55:00,
2013-03-16 19:00:00,31.8,29.8,29.86,West,278,0.0,2.0,92,0.00,,,0.00,meteohub,2013-03-16 23:00:00,
2013-03-16 19:05:00,31.6,29.7,29.86,WNW,298,0.0,1.0,92,0.00,,,0.00,meteohub,2013-03-16 23:05:00,
2013-03-16 19:10:00,31.6,29.7,29.86,NW,311,0.0,2.0,92,0.00,,,0.00,meteohub,2013-03-16 23:10:00,
2013-03-16 19:15:00,31.6,29.3,29.86,WNW,298,0.0,2.0,91,0.00,,,0.00,meteohub,2013-03-16 23:15:00,
2013-03-16 19:20:00,31.6,29.1,29.85,NNW,336,0.0,3.0,90,0.00,,,0.00,meteohub,2013-03-16 23:20:00,
2013-03-16 19:25:00,31.8,29.3,29.85,NNW,330,1.0,5.0,90,0.00,,,0.00,meteohub,2013-03-16 23:25:00,
2013-03-16 19:30:00,31.8,28.9,29.85,NNW,345,4.0,5.0,89,0.00,,,0.00,meteohub,2013-03-16 23:30:00,
2013-03-16 19:35:00,32.0,29.1,29.86,NNW,340,4.0,7.0,89,0.00,,,0.00,meteohub,2013-03-16 23:35:00,
2013-03-16 19:40:00,32.2,28.9,29.86,North,349,2.0,7.0,88,0.00,,,0.00,meteohub,2013-03-16 23:40:00,
2013-03-16 19:45:00,32.4,29.1,29.86,NW,308,3.0,7.0,88,0.00,,,0.00,meteohub,2013-03-16 23:45:00,
2013-03-16 19:50:00,32.4,28.9,29.87,NW,307,2.0,7.0,87,0.00,,,0.00,meteohub,2013-03-16 23:50:00,
2013-03-16 19:55:00,32.5,29.3,29.87,NNW,336,1.0,7.0,88,0.00,,,0.00,meteohub,2013-03-16 23:55:00,
2013-03-16 20:00:00,32.5,29.3,29.87,NNW,328,2.0,5.0,88,0.00,,,0.00,meteohub,2013-03-17 00:00:00,
2013-03-16 20:05:00,32.5,29.3,29.87,WNW,294,0.0,4.0,88,0.00,,,0.00,meteohub,2013-03-17 00:05:00,
2013-03-16 20:10:00,32.5,29.3,29.87,NW,325,0.0,4.0,88,0.00,,,0.00,meteohub,2013-03-17 00:10:00,
2013-03-16 20:15:00,32.7,29.5,29.87,NW,304,3.0,3.0,88,0.00,,,0.00,meteohub,2013-03-17 00:15:00,
2013-03-16 20:20:00,32.9,30.0,29.88,NNW,346,2.0,4.0,89,0.00,,,0.00,meteohub,2013-03-17 00:20:00,
2013-03-16 20:25:00,33.1,29.8,29.88,WNW,297,2.0,4.0,88,0.00,,,0.00,meteohub,2013-03-17 00:25:00,
2013-03-16 20:30:00,33.1,29.8,29.88,WNW,302,1.0,4.0,88,0.00,,,0.00,meteohub,2013-03-17 00:30:00,
2013-03-16 20:35:00,33.1,29.8,29.88,WNW,297,1.0,4.0,88,0.00,,,0.00,meteohub,2013-03-17 00:35:00,
2013-03-16 20:40:00,33.1,29.8,29.89,WNW,302,0.0,4.0,88,0.00,,,0.00,meteohub,2013-03-17 00:40:00,
2013-03-16 20:45:00,33.1,29.8,29.89,WNW,291,0.0,4.0,88,0.00,,,0.00,meteohub,2013-03-17 00:45:00,
2013-03-16 20:50:00,33.3,30.4,29.89,NW,318,4.0,4.0,89,0.00,,,0.00,meteohub,2013-03-17 00:50:00,
2013-03-16 20:55:00,33.3,30.0,29.89,WNW,297,0.0,4.0,88,0.00,,,0.00,meteohub,2013-03-17 00:55:00,
2013-03-16 21:00:00,33.3,30.0,29.89,WNW,283,0.0,4.0,88,0.00,,,0.00,meteohub,2013-03-17 01:00:00,
2013-03-16 21:05:00,33.3,30.4,29.90,West,276,0.0,4.0,89,0.00,,,0.00,meteohub,2013-03-17 01:05:00,
2013-03-16 21:10:00,33.1,30.2,29.90,WNW,294,2.0,4.0,89,0.00,,,0.00,meteohub,2013-03-17 01:10:00,
2013-03-16 21:15:00,33.3,30.4,29.90,WNW,291,0.0,4.0,89,0.00,,,0.00,meteohub,2013-03-17 01:15:00,
2013-03-16 21:20:00,33.1,30.4,29.90,WNW,301,1.0,4.0,90,0.00,,,0.00,meteohub,2013-03-17 01:20:00,
2013-03-16 21:25:00,33.1,30.4,29.90,West,281,1.0,5.0,90,0.00,,,0.00,meteohub,2013-03-17 01:25:00,
2013-03-16 21:30:00,33.3,30.6,29.90,WNW,289,0.0,5.0,90,0.00,,,0.00,meteohub,2013-03-17 01:30:00,
2013-03-16 21:35:00,33.3,30.9,29.90,WNW,296,3.0,5.0,91,0.00,,,0.00,meteohub,2013-03-17 01:35:00,
2013-03-16 21:40:00,33.1,30.7,29.91,NW,314,1.0,4.0,91,0.00,,,0.00,meteohub,2013-03-17 01:40:00,
2013-03-16 21:45:00,33.1,30.7,29.90,NW,304,1.0,4.0,91,0.00,,,0.00,meteohub,2013-03-17 01:45:00,
2013-03-16 21:50:00,32.9,30.6,29.91,NW,309,0.0,4.0,91,0.00,,,0.00,meteohub,2013-03-17 01:50:00,
2013-03-16 21:55:00,33.1,30.7,29.91,WNW,295,2.0,3.0,91,0.00,,,0.00,meteohub,2013-03-17 01:55:00,
2013-03-16 22:00:00,33.1,31.1,29.91,NW,311,2.0,3.0,92,0.00,,,0.00,meteohub,2013-03-17 02:00:00,
2013-03-16 22:05:00,33.1,31.1,29.91,WNW,300,0.0,3.0,92,0.00,,,0.00,meteohub,2013-03-17 02:05:00,
2013-03-16 22:10:00,33.1,31.1,29.92,NW,309,2.0,3.0,92,0.00,,,0.00,meteohub,2013-03-17 02:10:00,
2013-03-16 22:15:00,33.1,30.7,29.92,WNW,301,0.0,4.0,91,0.00,,,0.00,meteohub,2013-03-17 02:15:00,
2013-03-16 22:20:00,33.1,30.7,29.91,WNW,285,1.0,4.0,91,0.00,,,0.00,meteohub,2013-03-17 02:20:00,
2013-03-16 22:25:00,33.1,30.7,29.91,WNW,301,1.0,4.0,91,0.00,,,0.00,meteohub,2013-03-17 02:25:00,
2013-03-16 22:30:00,33.1,30.7,29.91,WNW,298,2.0,4.0,91,0.00,,,0.00,meteohub,2013-03-17 02:30:00,
2013-03-16 22:35:00,33.3,30.9,29.91,West,271,0.0,4.0,91,0.00,,,0.00,meteohub,2013-03-17 02:35:00,
2013-03-16 22:40:00,33.3,30.9,29.91,NW,311,2.0,4.0,91,0.00,,,0.00,meteohub,2013-03-17 02:40:00,
2013-03-16 22:46:00,33.3,30.6,29.92,NW,312,2.0,4.0,90,0.00,,,0.00,meteohub,2013-03-17 02:46:00,
2013-03-16 22:51:00,33.3,30.6,29.92,NW,312,3.0,4.0,90,0.00,,,0.00,meteohub,2013-03-17 02:51:00,
2013-03-16 22:56:00,33.4,30.7,29.92,NW,305,0.0,4.0,90,0.00,,,0.00,meteohub,2013-03-17 02:56:00,
2013-03-16 23:01:00,33.4,30.6,29.92,NW,309,1.0,4.0,89,0.00,,,0.00,meteohub,2013-03-17 03:01:00,
2013-03-16 23:06:00,33.6,30.7,29.92,WNW,297,1.0,4.0,89,0.00,,,0.00,meteohub,2013-03-17 03:06:00,
2013-03-16 23:11:00,33.8,31.1,29.93,NW,309,2.0,4.0,90,0.00,,,0.00,meteohub,2013-03-17 03:11:00,
2013-03-16 23:16:00,34.0,31.3,29.92,WNW,298,2.0,4.0,90,0.00,,,0.00,meteohub,2013-03-17 03:16:00,
2013-03-16 23:21:00,34.0,31.6,29.92,NW,308,3.0,5.0,91,0.00,,,0.00,meteohub,2013-03-17 03:21:00,
2013-03-16 23:27:00,34.2,31.8,29.93,WNW,298,2.0,5.0,91,0.00,,,0.00,meteohub,2013-03-17 03:27:00,
2013-03-16 23:32:00,34.2,32.0,29.93,NW,305,4.0,5.0,92,0.00,,,0.00,meteohub,2013-03-17 03:32:00,
2013-03-16 23:37:00,34.2,31.8,29.93,WNW,296,4.0,6.0,91,0.00,,,0.00,meteohub,2013-03-17 03:37:00,
2013-03-16 23:42:00,34.2,31.8,29.93,NW,308,2.0,6.0,91,0.00,,,0.00,meteohub,2013-03-17 03:42:00,
2013-03-16 23:47:00,34.3,32.0,29.93,WNW,301,3.0,6.0,91,0.00,,,0.00,meteohub,2013-03-17 03:47:00,
2013-03-16 23:52:00,34.3,31.6,29.93,WNW,301,3.0,6.0,90,0.00,,,0.00,meteohub,2013-03-17 03:52:00,
2013-03-16 23:57:00,34.3,31.6,29.93,NW,323,3.0,7.0,90,0.00,,,0.00,meteohub,2013-03-17 03:57:00,